sensor_id;sensor_type;location;lat;lon;timestamp;P1;durP1;ratioP1;P2;durP2;ratioP2
44862;SDS011;30597;49.628;10.850;2024-02-28T00:01:23;7.43;;;6.67;;
44862;SDS011;30597;49.628;10.850;2024-02-28T00:03:48;7.77;;;7.07;;
44862;SDS011;30597;49.628;10.850;2024-02-28T00:06:15;6.97;;;6.37;;
44862;SDS011;30597;49.628;10.850;2024-02-28T00:08:41;7.50;;;5.87;;
44862;SDS011;30597;49.628;10.850;2024-02-28T00:11:07;12.33;;;7.07;;
44862;SDS011;30597;49.628;10.850;2024-02-28T00:13:32;7.33;;;6.50;;
44862;SDS011;30597;49.628;10.850;2024-02-28T00:15:58;10.30;;;5.57;;
44862;SDS011;30597;49.628;10.850;2024-02-28T00:18:24;10.33;;;5.30;;
44862;SDS011;30597;49.628;10.850;2024-02-28T00:20:49;12.17;;;6.73;;
44862;SDS011;30597;49.628;10.850;2024-02-28T00:23:15;6.77;;;6.07;;
44862;SDS011;30597;49.628;10.850;2024-02-28T00:25:40;7.03;;;6.33;;
44862;SDS011;30597;49.628;10.850;2024-02-28T00:28:06;6.60;;;5.40;;
44862;SDS011;30597;49.628;10.850;2024-02-28T00:30:31;6.70;;;5.07;;
44862;SDS011;30597;49.628;10.850;2024-02-28T00:32:57;6.93;;;5.87;;
44862;SDS011;30597;49.628;10.850;2024-02-28T00:35:23;6.70;;;5.90;;
44862;SDS011;30597;49.628;10.850;2024-02-28T00:37:49;6.20;;;5.67;;
44862;SDS011;30597;49.628;10.850;2024-02-28T00:40:14;5.67;;;5.20;;
44862;SDS011;30597;49.628;10.850;2024-02-28T00:42:40;7.80;;;5.83;;
44862;SDS011;30597;49.628;10.850;2024-02-28T00:45:07;6.60;;;5.40;;
44862;SDS011;30597;49.628;10.850;2024-02-28T00:47:33;5.90;;;5.30;;
44862;SDS011;30597;49.628;10.850;2024-02-28T00:49:59;6.20;;;5.00;;
44862;SDS011;30597;49.628;10.850;2024-02-28T00:52:24;5.83;;;5.30;;
44862;SDS011;30597;49.628;10.850;2024-02-28T00:54:50;6.83;;;5.90;;
44862;SDS011;30597;49.628;10.850;2024-02-28T00:57:16;6.00;;;5.40;;
44862;SDS011;30597;49.628;10.850;2024-02-28T00:59:41;7.27;;;6.13;;
44862;SDS011;30597;49.628;10.850;2024-02-28T01:02:08;5.70;;;5.20;;
44862;SDS011;30597;49.628;10.850;2024-02-28T01:04:33;5.93;;;5.40;;
44862;SDS011;30597;49.628;10.850;2024-02-28T01:06:59;6.10;;;5.50;;
44862;SDS011;30597;49.628;10.850;2024-02-28T01:09:24;5.40;;;4.90;;
44862;SDS011;30597;49.628;10.850;2024-02-28T01:11:50;9.27;;;5.60;;
44862;SDS011;30597;49.628;10.850;2024-02-28T01:14:16;5.87;;;5.37;;
44862;SDS011;30597;49.628;10.850;2024-02-28T01:16:41;6.80;;;5.30;;
44862;SDS011;30597;49.628;10.850;2024-02-28T01:19:07;5.90;;;5.40;;
44862;SDS011;30597;49.628;10.850;2024-02-28T01:21:32;6.33;;;5.73;;
44862;SDS011;30597;49.628;10.850;2024-02-28T01:23:58;5.90;;;5.40;;
44862;SDS011;30597;49.628;10.850;2024-02-28T01:26:23;6.93;;;6.20;;
44862;SDS011;30597;49.628;10.850;2024-02-28T01:28:49;5.30;;;4.80;;
44862;SDS011;30597;49.628;10.850;2024-02-28T01:31:15;5.97;;;5.20;;
44862;SDS011;30597;49.628;10.850;2024-02-28T01:33:40;5.97;;;5.30;;
44862;SDS011;30597;49.628;10.850;2024-02-28T01:36:06;6.07;;;5.27;;
44862;SDS011;30597;49.628;10.850;2024-02-28T01:38:32;8.67;;;5.57;;
44862;SDS011;30597;49.628;10.850;2024-02-28T01:40:57;4.97;;;4.57;;
44862;SDS011;30597;49.628;10.850;2024-02-28T01:43:23;5.80;;;5.30;;
44862;SDS011;30597;49.628;10.850;2024-02-28T01:45:49;5.00;;;4.50;;
44862;SDS011;30597;49.628;10.850;2024-02-28T01:48:15;5.53;;;5.03;;
44862;SDS011;30597;49.628;10.850;2024-02-28T01:50:41;5.50;;;4.90;;
44862;SDS011;30597;49.628;10.850;2024-02-28T01:53:08;5.93;;;5.27;;
44862;SDS011;30597;49.628;10.850;2024-02-28T01:55:35;5.20;;;4.77;;
44862;SDS011;30597;49.628;10.850;2024-02-28T01:58:01;6.23;;;4.77;;
44862;SDS011;30597;49.628;10.850;2024-02-28T02:00:30;5.47;;;4.50;;
44862;SDS011;30597;49.628;10.850;2024-02-28T02:02:57;5.50;;;4.80;;
44862;SDS011;30597;49.628;10.850;2024-02-28T02:05:23;4.97;;;4.47;;
44862;SDS011;30597;49.628;10.850;2024-02-28T02:07:49;5.50;;;4.93;;
44862;SDS011;30597;49.628;10.850;2024-02-28T02:10:15;5.37;;;4.87;;
44862;SDS011;30597;49.628;10.850;2024-02-28T02:12:41;5.00;;;4.50;;
44862;SDS011;30597;49.628;10.850;2024-02-28T02:15:06;5.60;;;5.10;;
44862;SDS011;30597;49.628;10.850;2024-02-28T02:17:32;5.20;;;4.70;;
44862;SDS011;30597;49.628;10.850;2024-02-28T02:19:57;5.57;;;5.03;;
44862;SDS011;30597;49.628;10.850;2024-02-28T02:22:23;6.03;;;4.60;;
44862;SDS011;30597;49.628;10.850;2024-02-28T02:24:54;6.30;;;4.67;;
44862;SDS011;30597;49.628;10.850;2024-02-28T02:27:20;4.90;;;4.40;;
44862;SDS011;30597;49.628;10.850;2024-02-28T02:29:45;5.10;;;4.63;;
44862;SDS011;30597;49.628;10.850;2024-02-28T02:32:11;7.00;;;5.10;;
44862;SDS011;30597;49.628;10.850;2024-02-28T02:34:36;5.30;;;4.80;;
44862;SDS011;30597;49.628;10.850;2024-02-28T02:37:02;5.27;;;4.77;;
44862;SDS011;30597;49.628;10.850;2024-02-28T02:39:29;5.53;;;5.00;;
44862;SDS011;30597;49.628;10.850;2024-02-28T02:41:54;4.70;;;4.30;;
44862;SDS011;30597;49.628;10.850;2024-02-28T02:44:20;4.43;;;3.90;;
44862;SDS011;30597;49.628;10.850;2024-02-28T02:46:45;5.20;;;4.30;;
44862;SDS011;30597;49.628;10.850;2024-02-28T02:49:11;5.10;;;4.70;;
44862;SDS011;30597;49.628;10.850;2024-02-28T02:51:36;10.10;;;5.90;;
44862;SDS011;30597;49.628;10.850;2024-02-28T02:54:02;4.97;;;4.13;;
44862;SDS011;30597;49.628;10.850;2024-02-28T02:56:27;4.93;;;4.43;;
44862;SDS011;30597;49.628;10.850;2024-02-28T02:58:53;5.27;;;4.33;;
44862;SDS011;30597;49.628;10.850;2024-02-28T03:01:18;4.70;;;4.30;;
44862;SDS011;30597;49.628;10.850;2024-02-28T03:03:45;5.13;;;4.70;;
44862;SDS011;30597;49.628;10.850;2024-02-28T03:06:10;4.73;;;4.27;;
44862;SDS011;30597;49.628;10.850;2024-02-28T03:08:36;4.67;;;4.27;;
44862;SDS011;30597;49.628;10.850;2024-02-28T03:11:01;5.00;;;4.50;;
44862;SDS011;30597;49.628;10.850;2024-02-28T03:13:29;4.70;;;4.30;;
44862;SDS011;30597;49.628;10.850;2024-02-28T03:15:55;4.70;;;4.30;;
44862;SDS011;30597;49.628;10.850;2024-02-28T03:18:20;6.70;;;4.90;;
44862;SDS011;30597;49.628;10.850;2024-02-28T03:20:46;4.10;;;3.70;;
44862;SDS011;30597;49.628;10.850;2024-02-28T03:23:11;6.80;;;4.70;;
44862;SDS011;30597;49.628;10.850;2024-02-28T03:25:37;4.93;;;4.00;;
44862;SDS011;30597;49.628;10.850;2024-02-28T03:28:02;4.23;;;3.80;;
44862;SDS011;30597;49.628;10.850;2024-02-28T03:30:28;4.27;;;3.87;;
44862;SDS011;30597;49.628;10.850;2024-02-28T03:32:54;4.47;;;4.17;;
44862;SDS011;30597;49.628;10.850;2024-02-28T03:35:19;4.87;;;4.47;;
44862;SDS011;30597;49.628;10.850;2024-02-28T03:37:45;4.20;;;3.80;;
44862;SDS011;30597;49.628;10.850;2024-02-28T03:40:10;3.83;;;3.47;;
44862;SDS011;30597;49.628;10.850;2024-02-28T03:42:37;3.90;;;3.60;;
44862;SDS011;30597;49.628;10.850;2024-02-28T03:45:03;4.97;;;4.47;;
44862;SDS011;30597;49.628;10.850;2024-02-28T03:47:29;4.53;;;4.13;;
44862;SDS011;30597;49.628;10.850;2024-02-28T03:49:55;5.13;;;4.63;;
44862;SDS011;30597;49.628;10.850;2024-02-28T03:52:22;5.90;;;4.00;;
44862;SDS011;30597;49.628;10.850;2024-02-28T03:54:48;3.80;;;3.50;;
44862;SDS011;30597;49.628;10.850;2024-02-28T03:57:13;4.07;;;3.63;;
44862;SDS011;30597;49.628;10.850;2024-02-28T03:59:40;4.73;;;4.27;;
44862;SDS011;30597;49.628;10.850;2024-02-28T04:02:06;4.23;;;3.93;;
44862;SDS011;30597;49.628;10.850;2024-02-28T04:04:31;4.87;;;4.47;;
44862;SDS011;30597;49.628;10.850;2024-02-28T04:06:57;3.80;;;3.30;;
44862;SDS011;30597;49.628;10.850;2024-02-28T04:09:22;3.93;;;3.63;;
44862;SDS011;30597;49.628;10.850;2024-02-28T04:11:48;4.33;;;3.93;;
44862;SDS011;30597;49.628;10.850;2024-02-28T04:14:14;4.57;;;4.10;;
44862;SDS011;30597;49.628;10.850;2024-02-28T04:16:42;4.30;;;3.90;;
44862;SDS011;30597;49.628;10.850;2024-02-28T04:19:09;5.00;;;3.80;;
44862;SDS011;30597;49.628;10.850;2024-02-28T04:21:35;3.70;;;3.40;;
44862;SDS011;30597;49.628;10.850;2024-02-28T04:24:01;4.40;;;3.93;;
44862;SDS011;30597;49.628;10.850;2024-02-28T04:26:26;4.50;;;3.87;;
44862;SDS011;30597;49.628;10.850;2024-02-28T04:28:52;3.77;;;3.47;;
44862;SDS011;30597;49.628;10.850;2024-02-28T04:31:17;4.20;;;3.80;;
44862;SDS011;30597;49.628;10.850;2024-02-28T04:33:43;3.90;;;3.60;;
44862;SDS011;30597;49.628;10.850;2024-02-28T04:36:08;3.70;;;3.40;;
44862;SDS011;30597;49.628;10.850;2024-02-28T04:38:34;3.53;;;3.23;;
44862;SDS011;30597;49.628;10.850;2024-02-28T04:40:59;8.87;;;5.13;;
44862;SDS011;30597;49.628;10.850;2024-02-28T04:43:25;4.00;;;3.70;;
44862;SDS011;30597;49.628;10.850;2024-02-28T04:45:51;3.80;;;3.43;;
44862;SDS011;30597;49.628;10.850;2024-02-28T04:48:16;3.70;;;3.40;;
44862;SDS011;30597;49.628;10.850;2024-02-28T04:50:42;3.50;;;3.20;;
44862;SDS011;30597;49.628;10.850;2024-02-28T04:53:07;4.10;;;3.70;;
44862;SDS011;30597;49.628;10.850;2024-02-28T04:55:33;3.63;;;3.33;;
44862;SDS011;30597;49.628;10.850;2024-02-28T04:57:59;4.10;;;3.70;;
44862;SDS011;30597;49.628;10.850;2024-02-28T05:00:25;3.60;;;3.30;;
44862;SDS011;30597;49.628;10.850;2024-02-28T05:02:51;4.20;;;3.80;;
44862;SDS011;30597;49.628;10.850;2024-02-28T05:05:17;3.40;;;3.13;;
44862;SDS011;30597;49.628;10.850;2024-02-28T05:07:42;3.73;;;3.33;;
44862;SDS011;30597;49.628;10.850;2024-02-28T05:10:08;4.30;;;3.33;;
44862;SDS011;30597;49.628;10.850;2024-02-28T05:12:34;3.33;;;3.03;;
44862;SDS011;30597;49.628;10.850;2024-02-28T05:14:59;3.53;;;2.80;;
44862;SDS011;30597;49.628;10.850;2024-02-28T05:17:25;3.53;;;3.23;;
44862;SDS011;30597;49.628;10.850;2024-02-28T05:19:51;3.27;;;3.07;;
44862;SDS011;30597;49.628;10.850;2024-02-28T05:22:16;3.30;;;3.00;;
44862;SDS011;30597;49.628;10.850;2024-02-28T05:24:42;3.77;;;3.47;;
44862;SDS011;30597;49.628;10.850;2024-02-28T05:27:10;3.67;;;3.37;;
44862;SDS011;30597;49.628;10.850;2024-02-28T05:29:35;3.50;;;3.20;;
44862;SDS011;30597;49.628;10.850;2024-02-28T05:32:01;3.87;;;3.53;;
44862;SDS011;30597;49.628;10.850;2024-02-28T05:34:27;3.03;;;2.73;;
44862;SDS011;30597;49.628;10.850;2024-02-28T05:36:52;2.90;;;2.60;;
44862;SDS011;30597;49.628;10.850;2024-02-28T05:39:18;4.33;;;3.77;;
44862;SDS011;30597;49.628;10.850;2024-02-28T05:41:43;5.80;;;3.37;;
44862;SDS011;30597;49.628;10.850;2024-02-28T05:44:09;3.30;;;3.00;;
44862;SDS011;30597;49.628;10.850;2024-02-28T05:46:34;4.67;;;4.13;;
44862;SDS011;30597;49.628;10.850;2024-02-28T05:49:01;3.97;;;3.53;;
44862;SDS011;30597;49.628;10.850;2024-02-28T05:51:27;3.97;;;3.57;;
44862;SDS011;30597;49.628;10.850;2024-02-28T05:53:53;3.50;;;3.20;;
44862;SDS011;30597;49.628;10.850;2024-02-28T05:56:18;3.17;;;2.97;;
44862;SDS011;30597;49.628;10.850;2024-02-28T05:58:45;4.43;;;3.67;;
44862;SDS011;30597;49.628;10.850;2024-02-28T06:01:11;3.00;;;2.70;;
44862;SDS011;30597;49.628;10.850;2024-02-28T06:03:39;3.33;;;3.03;;
44862;SDS011;30597;49.628;10.850;2024-02-28T06:06:05;3.20;;;2.93;;
44862;SDS011;30597;49.628;10.850;2024-02-28T06:08:34;3.10;;;2.90;;
44862;SDS011;30597;49.628;10.850;2024-02-28T06:11:02;3.50;;;2.90;;
44862;SDS011;30597;49.628;10.850;2024-02-28T06:13:28;3.97;;;3.57;;
44862;SDS011;30597;49.628;10.850;2024-02-28T06:15:56;3.33;;;3.03;;
44862;SDS011;30597;49.628;10.850;2024-02-28T06:18:22;3.57;;;3.07;;
44862;SDS011;30597;49.628;10.850;2024-02-28T06:20:49;3.40;;;3.03;;
44862;SDS011;30597;49.628;10.850;2024-02-28T06:23:14;3.00;;;2.77;;
44862;SDS011;30597;49.628;10.850;2024-02-28T06:25:40;3.20;;;2.90;;
44862;SDS011;30597;49.628;10.850;2024-02-28T06:28:06;3.77;;;3.43;;
44862;SDS011;30597;49.628;10.850;2024-02-28T06:30:32;3.00;;;2.80;;
44862;SDS011;30597;49.628;10.850;2024-02-28T06:33:01;3.60;;;3.30;;
44862;SDS011;30597;49.628;10.850;2024-02-28T06:35:27;3.47;;;3.17;;
44862;SDS011;30597;49.628;10.850;2024-02-28T06:37:53;3.23;;;2.73;;
44862;SDS011;30597;49.628;10.850;2024-02-28T06:40:19;3.10;;;2.90;;
44862;SDS011;30597;49.628;10.850;2024-02-28T06:42:45;3.37;;;3.10;;
44862;SDS011;30597;49.628;10.850;2024-02-28T06:45:11;3.37;;;3.07;;
44862;SDS011;30597;49.628;10.850;2024-02-28T06:47:36;6.77;;;3.03;;
44862;SDS011;30597;49.628;10.850;2024-02-28T06:50:02;3.90;;;3.60;;
44862;SDS011;30597;49.628;10.850;2024-02-28T06:52:29;3.63;;;3.33;;
44862;SDS011;30597;49.628;10.850;2024-02-28T06:54:55;3.27;;;2.97;;
44862;SDS011;30597;49.628;10.850;2024-02-28T06:57:21;3.03;;;2.83;;
44862;SDS011;30597;49.628;10.850;2024-02-28T06:59:46;3.30;;;3.00;;
44862;SDS011;30597;49.628;10.850;2024-02-28T07:02:13;3.10;;;2.90;;
44862;SDS011;30597;49.628;10.850;2024-02-28T07:04:39;3.50;;;3.20;;
44862;SDS011;30597;49.628;10.850;2024-02-28T07:07:05;3.30;;;3.07;;
44862;SDS011;30597;49.628;10.850;2024-02-28T07:09:31;3.27;;;2.97;;
44862;SDS011;30597;49.628;10.850;2024-02-28T07:11:57;3.97;;;3.67;;
44862;SDS011;30597;49.628;10.850;2024-02-28T07:14:23;2.80;;;2.60;;
44862;SDS011;30597;49.628;10.850;2024-02-28T07:16:49;3.60;;;3.30;;
44862;SDS011;30597;49.628;10.850;2024-02-28T07:19:16;4.20;;;2.77;;
44862;SDS011;30597;49.628;10.850;2024-02-28T07:21:42;3.23;;;2.93;;
44862;SDS011;30597;49.628;10.850;2024-02-28T07:24:08;3.37;;;3.07;;
44862;SDS011;30597;49.628;10.850;2024-02-28T07:26:34;3.30;;;3.00;;
44862;SDS011;30597;49.628;10.850;2024-02-28T07:28:59;4.40;;;3.17;;
44862;SDS011;30597;49.628;10.850;2024-02-28T07:31:25;3.50;;;3.20;;
44862;SDS011;30597;49.628;10.850;2024-02-28T07:33:50;5.43;;;3.73;;
44862;SDS011;30597;49.628;10.850;2024-02-28T07:36:16;3.30;;;3.00;;
44862;SDS011;30597;49.628;10.850;2024-02-28T07:38:41;3.47;;;3.17;;
44862;SDS011;30597;49.628;10.850;2024-02-28T07:41:07;3.37;;;3.10;;
44862;SDS011;30597;49.628;10.850;2024-02-28T07:43:33;3.27;;;3.00;;
44862;SDS011;30597;49.628;10.850;2024-02-28T07:46:02;3.30;;;3.00;;
44862;SDS011;30597;49.628;10.850;2024-02-28T07:48:31;5.17;;;3.97;;
44862;SDS011;30597;49.628;10.850;2024-02-28T07:50:57;3.27;;;2.97;;
44862;SDS011;30597;49.628;10.850;2024-02-28T07:53:22;4.20;;;3.27;;
44862;SDS011;30597;49.628;10.850;2024-02-28T07:55:51;3.73;;;3.43;;
44862;SDS011;30597;49.628;10.850;2024-02-28T07:58:16;3.80;;;3.50;;
44862;SDS011;30597;49.628;10.850;2024-02-28T08:00:42;4.60;;;3.13;;
44862;SDS011;30597;49.628;10.850;2024-02-28T08:03:08;3.10;;;2.90;;
44862;SDS011;30597;49.628;10.850;2024-02-28T08:05:34;3.93;;;3.30;;
44862;SDS011;30597;49.628;10.850;2024-02-28T08:08:04;2.87;;;2.67;;
44862;SDS011;30597;49.628;10.850;2024-02-28T08:10:31;3.60;;;3.30;;
44862;SDS011;30597;49.628;10.850;2024-02-28T08:12:56;3.47;;;3.17;;
44862;SDS011;30597;49.628;10.850;2024-02-28T08:15:22;4.20;;;3.10;;
44862;SDS011;30597;49.628;10.850;2024-02-28T08:17:48;4.20;;;3.63;;
44862;SDS011;30597;49.628;10.850;2024-02-28T08:20:13;3.50;;;3.20;;
44862;SDS011;30597;49.628;10.850;2024-02-28T08:22:39;2.83;;;2.63;;
44862;SDS011;30597;49.628;10.850;2024-02-28T08:25:05;3.23;;;2.93;;
44862;SDS011;30597;49.628;10.850;2024-02-28T08:27:31;3.37;;;3.07;;
44862;SDS011;30597;49.628;10.850;2024-02-28T08:29:59;4.80;;;2.97;;
44862;SDS011;30597;49.628;10.850;2024-02-28T08:32:24;3.10;;;2.80;;
44862;SDS011;30597;49.628;10.850;2024-02-28T08:34:50;3.03;;;2.73;;
44862;SDS011;30597;49.628;10.850;2024-02-28T08:37:15;3.40;;;2.90;;
44862;SDS011;30597;49.628;10.850;2024-02-28T08:39:42;3.50;;;3.20;;
44862;SDS011;30597;49.628;10.850;2024-02-28T08:42:07;3.10;;;2.90;;
44862;SDS011;30597;49.628;10.850;2024-02-28T08:44:33;3.13;;;2.83;;
44862;SDS011;30597;49.628;10.850;2024-02-28T08:46:58;3.40;;;2.63;;
44862;SDS011;30597;49.628;10.850;2024-02-28T08:49:24;4.17;;;2.73;;
44862;SDS011;30597;49.628;10.850;2024-02-28T08:51:49;2.90;;;2.70;;
44862;SDS011;30597;49.628;10.850;2024-02-28T08:54:15;3.00;;;2.70;;
44862;SDS011;30597;49.628;10.850;2024-02-28T08:56:40;3.20;;;3.00;;
44862;SDS011;30597;49.628;10.850;2024-02-28T08:59:06;2.97;;;2.77;;
44862;SDS011;30597;49.628;10.850;2024-02-28T09:01:32;3.17;;;2.90;;
44862;SDS011;30597;49.628;10.850;2024-02-28T09:03:59;3.00;;;2.70;;
44862;SDS011;30597;49.628;10.850;2024-02-28T09:06:25;3.77;;;3.37;;
44862;SDS011;30597;49.628;10.850;2024-02-28T09:08:50;4.97;;;3.13;;
44862;SDS011;30597;49.628;10.850;2024-02-28T09:11:16;3.87;;;3.30;;
44862;SDS011;30597;49.628;10.850;2024-02-28T09:13:41;3.20;;;2.90;;
44862;SDS011;30597;49.628;10.850;2024-02-28T09:16:07;3.17;;;2.97;;
44862;SDS011;30597;49.628;10.850;2024-02-28T09:18:32;3.13;;;2.83;;
44862;SDS011;30597;49.628;10.850;2024-02-28T09:20:58;3.30;;;3.00;;
44862;SDS011;30597;49.628;10.850;2024-02-28T09:23:24;3.10;;;2.90;;
44862;SDS011;30597;49.628;10.850;2024-02-28T09:25:49;3.10;;;2.90;;
44862;SDS011;30597;49.628;10.850;2024-02-28T09:28:15;2.83;;;2.63;;
44862;SDS011;30597;49.628;10.850;2024-02-28T09:30:41;2.90;;;2.67;;
44862;SDS011;30597;49.628;10.850;2024-02-28T09:33:07;3.50;;;2.63;;
44862;SDS011;30597;49.628;10.850;2024-02-28T09:35:34;3.47;;;2.70;;
44862;SDS011;30597;49.628;10.850;2024-02-28T09:38:00;2.50;;;2.30;;
44862;SDS011;30597;49.628;10.850;2024-02-28T09:40:27;3.00;;;2.80;;
44862;SDS011;30597;49.628;10.850;2024-02-28T09:42:53;3.47;;;3.07;;
44862;SDS011;30597;49.628;10.850;2024-02-28T09:45:25;2.80;;;2.30;;
44862;SDS011;30597;49.628;10.850;2024-02-28T09:47:52;3.00;;;2.60;;
44862;SDS011;30597;49.628;10.850;2024-02-28T09:50:17;2.70;;;2.50;;
44862;SDS011;30597;49.628;10.850;2024-02-28T09:52:44;3.67;;;3.20;;
44862;SDS011;30597;49.628;10.850;2024-02-28T09:55:10;2.30;;;2.20;;
44862;SDS011;30597;49.628;10.850;2024-02-28T09:57:36;2.53;;;2.13;;
44862;SDS011;30597;49.628;10.850;2024-02-28T10:00:02;2.80;;;2.60;;
44862;SDS011;30597;49.628;10.850;2024-02-28T10:02:29;3.00;;;2.80;;
44862;SDS011;30597;49.628;10.850;2024-02-28T10:04:56;2.77;;;2.57;;
44862;SDS011;30597;49.628;10.850;2024-02-28T10:07:25;3.20;;;2.90;;
44862;SDS011;30597;49.628;10.850;2024-02-28T10:09:51;3.10;;;2.80;;
44862;SDS011;30597;49.628;10.850;2024-02-28T10:12:17;2.60;;;2.40;;
44862;SDS011;30597;49.628;10.850;2024-02-28T10:14:44;3.03;;;2.73;;
44862;SDS011;30597;49.628;10.850;2024-02-28T10:17:09;4.63;;;2.67;;
44862;SDS011;30597;49.628;10.850;2024-02-28T10:19:35;2.90;;;2.70;;
44862;SDS011;30597;49.628;10.850;2024-02-28T10:22:01;2.57;;;2.37;;
44862;SDS011;30597;49.628;10.850;2024-02-28T10:24:26;2.77;;;2.57;;
44862;SDS011;30597;49.628;10.850;2024-02-28T10:26:52;2.80;;;2.60;;
44862;SDS011;30597;49.628;10.850;2024-02-28T10:29:21;2.90;;;2.70;;
44862;SDS011;30597;49.628;10.850;2024-02-28T10:31:50;2.67;;;2.33;;
44862;SDS011;30597;49.628;10.850;2024-02-28T10:34:17;4.27;;;3.87;;
44862;SDS011;30597;49.628;10.850;2024-02-28T10:36:43;4.70;;;2.53;;
44862;SDS011;30597;49.628;10.850;2024-02-28T10:39:10;6.60;;;3.57;;
44862;SDS011;30597;49.628;10.850;2024-02-28T10:41:40;3.60;;;3.30;;
44862;SDS011;30597;49.628;10.850;2024-02-28T10:44:07;3.67;;;3.33;;
44862;SDS011;30597;49.628;10.850;2024-02-28T10:46:37;4.63;;;3.90;;
44862;SDS011;30597;49.628;10.850;2024-02-28T10:49:06;6.73;;;4.73;;
44862;SDS011;30597;49.628;10.850;2024-02-28T10:51:36;4.30;;;3.90;;
44862;SDS011;30597;49.628;10.850;2024-02-28T10:56:37;6.83;;;3.83;;
44862;SDS011;30597;49.628;10.850;2024-02-28T10:59:05;4.43;;;4.03;;
44862;SDS011;30597;49.628;10.850;2024-02-28T11:01:33;4.40;;;3.53;;
44862;SDS011;30597;49.628;10.850;2024-02-28T11:04:00;4.37;;;3.97;;
44862;SDS011;30597;49.628;10.850;2024-02-28T11:06:27;4.93;;;4.50;;
44862;SDS011;30597;49.628;10.850;2024-02-28T11:08:53;5.00;;;4.50;;
44862;SDS011;30597;49.628;10.850;2024-02-28T11:11:19;6.10;;;5.60;;
44862;SDS011;30597;49.628;10.850;2024-02-28T11:13:55;4.63;;;4.10;;
44862;SDS011;30597;49.628;10.850;2024-02-28T11:19:02;5.23;;;4.73;;
44862;SDS011;30597;49.628;10.850;2024-02-28T11:21:28;5.17;;;4.63;;
44862;SDS011;30597;49.628;10.850;2024-02-28T11:23:58;7.80;;;4.70;;
44862;SDS011;30597;49.628;10.850;2024-02-28T11:26:24;5.47;;;4.97;;
44862;SDS011;30597;49.628;10.850;2024-02-28T11:28:50;5.13;;;4.67;;
44862;SDS011;30597;49.628;10.850;2024-02-28T11:31:16;5.50;;;4.70;;
44862;SDS011;30597;49.628;10.850;2024-02-28T11:33:43;4.87;;;4.40;;
44862;SDS011;30597;49.628;10.850;2024-02-28T11:36:10;6.47;;;5.03;;
44862;SDS011;30597;49.628;10.850;2024-02-28T11:38:38;6.67;;;6.03;;
44862;SDS011;30597;49.628;10.850;2024-02-28T11:41:04;5.80;;;5.13;;
44862;SDS011;30597;49.628;10.850;2024-02-28T11:43:32;5.70;;;5.20;;
44862;SDS011;30597;49.628;10.850;2024-02-28T11:46:07;5.77;;;5.07;;
44862;SDS011;30597;49.628;10.850;2024-02-28T11:48:34;6.37;;;5.57;;
44862;SDS011;30597;49.628;10.850;2024-02-28T11:50:59;6.50;;;5.77;;
44862;SDS011;30597;49.628;10.850;2024-02-28T11:53:26;7.00;;;6.13;;
44862;SDS011;30597;49.628;10.850;2024-02-28T11:55:52;6.80;;;6.17;;
44862;SDS011;30597;49.628;10.850;2024-02-28T11:58:18;6.30;;;5.70;;
44862;SDS011;30597;49.628;10.850;2024-02-28T12:00:49;7.17;;;5.47;;
44862;SDS011;30597;49.628;10.850;2024-02-28T12:03:19;7.10;;;6.10;;
44862;SDS011;30597;49.628;10.850;2024-02-28T12:05:46;6.17;;;5.67;;
44862;SDS011;30597;49.628;10.850;2024-02-28T12:08:11;6.00;;;5.40;;
44862;SDS011;30597;49.628;10.850;2024-02-28T12:10:37;7.23;;;5.60;;
44862;SDS011;30597;49.628;10.850;2024-02-28T12:13:02;8.93;;;5.63;;
44862;SDS011;30597;49.628;10.850;2024-02-28T12:15:29;6.63;;;6.03;;
44862;SDS011;30597;49.628;10.850;2024-02-28T12:17:54;6.83;;;6.13;;
44862;SDS011;30597;49.628;10.850;2024-02-28T12:20:23;6.30;;;5.70;;
44862;SDS011;30597;49.628;10.850;2024-02-28T12:22:48;7.20;;;6.50;;
44862;SDS011;30597;49.628;10.850;2024-02-28T12:25:14;5.73;;;5.23;;
44862;SDS011;30597;49.628;10.850;2024-02-28T12:27:40;8.10;;;6.00;;
44862;SDS011;30597;49.628;10.850;2024-02-28T12:30:05;6.70;;;6.00;;
44862;SDS011;30597;49.628;10.850;2024-02-28T12:32:31;7.57;;;6.40;;
44862;SDS011;30597;49.628;10.850;2024-02-28T12:34:57;6.50;;;5.67;;
44862;SDS011;30597;49.628;10.850;2024-02-28T12:37:22;6.47;;;5.97;;
44862;SDS011;30597;49.628;10.850;2024-02-28T12:39:48;7.10;;;6.50;;
44862;SDS011;30597;49.628;10.850;2024-02-28T12:42:13;6.60;;;6.00;;
44862;SDS011;30597;49.628;10.850;2024-02-28T12:44:39;6.63;;;6.03;;
44862;SDS011;30597;49.628;10.850;2024-02-28T12:47:05;6.73;;;6.13;;
44862;SDS011;30597;49.628;10.850;2024-02-28T12:49:31;6.67;;;5.40;;
44862;SDS011;30597;49.628;10.850;2024-02-28T12:51:57;6.77;;;6.27;;
44862;SDS011;30597;49.628;10.850;2024-02-28T12:54:22;8.47;;;6.70;;
44862;SDS011;30597;49.628;10.850;2024-02-28T12:56:48;6.00;;;5.40;;
44862;SDS011;30597;49.628;10.850;2024-02-28T12:59:14;6.10;;;5.57;;
44862;SDS011;30597;49.628;10.850;2024-02-28T13:01:40;7.17;;;6.40;;
44862;SDS011;30597;49.628;10.850;2024-02-28T13:04:06;7.00;;;5.90;;
44862;SDS011;30597;49.628;10.850;2024-02-28T13:06:32;6.40;;;5.90;;
44862;SDS011;30597;49.628;10.850;2024-02-28T13:08:58;7.00;;;6.30;;
44862;SDS011;30597;49.628;10.850;2024-02-28T13:11:24;7.23;;;6.60;;
44862;SDS011;30597;49.628;10.850;2024-02-28T13:13:51;5.97;;;5.47;;
44862;SDS011;30597;49.628;10.850;2024-02-28T13:16:17;6.33;;;5.73;;
44862;SDS011;30597;49.628;10.850;2024-02-28T13:18:44;6.50;;;5.90;;
44862;SDS011;30597;49.628;10.850;2024-02-28T13:21:10;6.17;;;5.57;;
44862;SDS011;30597;49.628;10.850;2024-02-28T13:23:36;7.10;;;6.50;;
44862;SDS011;30597;49.628;10.850;2024-02-28T13:26:02;6.90;;;6.40;;
44862;SDS011;30597;49.628;10.850;2024-02-28T13:28:29;6.10;;;5.50;;
44862;SDS011;30597;49.628;10.850;2024-02-28T13:30:58;6.17;;;5.67;;
44862;SDS011;30597;49.628;10.850;2024-02-28T13:33:27;6.67;;;6.07;;
44862;SDS011;30597;49.628;10.850;2024-02-28T13:35:53;6.30;;;5.70;;
44862;SDS011;30597;49.628;10.850;2024-02-28T13:38:19;5.93;;;5.37;;
44862;SDS011;30597;49.628;10.850;2024-02-28T13:40:46;6.20;;;5.70;;
44862;SDS011;30597;49.628;10.850;2024-02-28T13:43:12;7.97;;;6.30;;
44862;SDS011;30597;49.628;10.850;2024-02-28T13:45:38;5.97;;;5.37;;
44862;SDS011;30597;49.628;10.850;2024-02-28T13:48:14;6.50;;;5.90;;
44862;SDS011;30597;49.628;10.850;2024-02-28T13:50:43;6.70;;;5.90;;
44862;SDS011;30597;49.628;10.850;2024-02-28T13:53:09;5.60;;;5.20;;
44862;SDS011;30597;49.628;10.850;2024-02-28T13:55:34;7.13;;;5.40;;
44862;SDS011;30597;49.628;10.850;2024-02-28T13:58:00;5.60;;;5.10;;
44862;SDS011;30597;49.628;10.850;2024-02-28T14:00:25;6.83;;;6.23;;
44862;SDS011;30597;49.628;10.850;2024-02-28T14:02:51;6.77;;;5.70;;
44862;SDS011;30597;49.628;10.850;2024-02-28T14:05:17;6.07;;;5.57;;
44862;SDS011;30597;49.628;10.850;2024-02-28T14:07:42;6.03;;;5.47;;
44862;SDS011;30597;49.628;10.850;2024-02-28T14:10:08;5.63;;;5.07;;
44862;SDS011;30597;49.628;10.850;2024-02-28T14:12:36;6.63;;;5.40;;
44862;SDS011;30597;49.628;10.850;2024-02-28T14:15:02;5.90;;;5.40;;
44862;SDS011;30597;49.628;10.850;2024-02-28T14:17:32;6.03;;;5.17;;
44862;SDS011;30597;49.628;10.850;2024-02-28T14:19:57;5.90;;;5.40;;
44862;SDS011;30597;49.628;10.850;2024-02-28T14:22:23;5.37;;;4.90;;
44862;SDS011;30597;49.628;10.850;2024-02-28T14:24:49;4.87;;;4.47;;
44862;SDS011;30597;49.628;10.850;2024-02-28T14:27:14;5.37;;;4.87;;
44862;SDS011;30597;49.628;10.850;2024-02-28T14:29:40;6.17;;;5.57;;
44862;SDS011;30597;49.628;10.850;2024-02-28T14:32:05;5.87;;;5.27;;